createdAt,value
2023-03-29T00:00:38.321Z,85.90
2023-03-29T00:01:38.320Z,86.32
2023-03-29T00:02:38.468Z,86.21
2023-03-29T00:03:38.376Z,86.00
2023-03-29T00:04:38.379Z,85.94
2023-03-29T00:05:38.248Z,86.25
2023-03-29T00:06:38.251Z,86.25
2023-03-29T00:07:38.224Z,85.94
2023-03-29T00:08:38.266Z,85.94
2023-03-29T00:09:38.199Z,86.46
2023-03-29T00:10:38.192Z,86.36
2023-03-29T00:11:38.191Z,86.46
2023-03-29T00:12:38.167Z,86.57
2023-03-29T00:13:38.182Z,86.88
2023-03-29T00:14:38.144Z,87.09
2023-03-29T00:15:38.145Z,86.99
2023-03-29T00:16:38.171Z,86.99
2023-03-29T00:17:38.109Z,86.99
2023-03-29T00:18:38.084Z,87.19
2023-03-29T00:19:38.071Z,87.30
2023-03-29T00:20:38.065Z,87.61
2023-03-29T00:21:38.037Z,87.82
2023-03-29T00:22:38.053Z,87.71
2023-03-29T00:23:38.160Z,87.51
2023-03-29T00:24:37.996Z,87.93
2023-03-29T00:25:38.006Z,87.82
2023-03-29T00:26:38.007Z,87.71
2023-03-29T00:27:37.968Z,87.51
2023-03-29T00:28:37.970Z,87.40
2023-03-29T00:29:37.937Z,87.51
2023-03-29T00:30:37.947Z,87.61
2023-03-29T00:31:38.048Z,87.71
2023-03-29T00:32:37.945Z,88.03
2023-03-29T00:33:37.910Z,87.93
2023-03-29T00:34:37.899Z,87.68
2023-03-29T00:35:37.901Z,87.47
2023-03-29T00:36:37.908Z,87.57
2023-03-29T00:37:37.855Z,87.57
2023-03-29T00:38:37.852Z,87.57
2023-03-29T00:39:37.831Z,87.26
2023-03-29T00:40:37.825Z,87.05
2023-03-29T00:41:37.788Z,87.15
2023-03-29T00:42:37.861Z,87.37
2023-03-29T00:43:37.758Z,87.47
2023-03-29T00:44:37.776Z,87.15
2023-03-29T00:45:37.743Z,86.94
2023-03-29T00:46:37.772Z,87.47
2023-03-29T00:47:37.825Z,87.57
2023-03-29T00:48:37.698Z,87.22
2023-03-29T00:49:37.694Z,87.05
2023-03-29T00:50:37.727Z,87.01
2023-03-29T00:51:37.674Z,87.01
2023-03-29T00:52:37.659Z,87.01
2023-03-29T00:53:37.644Z,87.01
2023-03-29T00:54:37.632Z,87.43
2023-03-29T00:55:37.616Z,87.84
2023-03-29T00:56:37.674Z,87.84
2023-03-29T00:57:37.586Z,87.63
2023-03-29T00:58:37.586Z,87.53
2023-03-29T00:59:37.557Z,87.22
2023-03-29T01:00:37.560Z,86.69
2023-03-29T01:01:37.581Z,86.59
2023-03-29T01:02:37.708Z,86.38
2023-03-29T01:03:37.593Z,86.28
2023-03-29T01:04:37.510Z,86.28
2023-03-29T01:05:37.515Z,86.18
2023-03-29T01:06:37.533Z,86.07
2023-03-29T01:07:37.459Z,86.28
2023-03-29T01:08:37.445Z,86.28
2023-03-29T01:09:37.521Z,86.28
2023-03-29T01:10:37.441Z,86.28
2023-03-29T01:11:37.416Z,86.38
2023-03-29T01:12:37.401Z,86.38
2023-03-29T01:13:37.401Z,86.59
2023-03-29T01:14:37.375Z,86.80
2023-03-29T01:15:37.537Z,86.91
2023-03-29T01:16:37.414Z,86.69
2023-03-29T01:17:37.403Z,86.80
2023-03-29T01:18:37.337Z,86.38
2023-03-29T01:19:37.312Z,86.49
2023-03-29T01:20:37.417Z,86.59
2023-03-29T01:21:37.299Z,86.49
2023-03-29T01:22:37.281Z,86.49
2023-03-29T01:23:37.306Z,86.49
2023-03-29T01:24:37.258Z,86.45
2023-03-29T01:25:37.235Z,86.38
2023-03-29T01:26:37.262Z,86.28
2023-03-29T01:27:37.219Z,86.18
2023-03-29T01:28:37.233Z,86.28
2023-03-29T01:29:37.174Z,86.38
2023-03-29T01:30:37.190Z,86.59
2023-03-29T01:31:37.184Z,86.49
2023-03-29T01:32:37.177Z,86.59
2023-03-29T01:33:37.134Z,86.59
2023-03-29T01:34:37.133Z,86.28
2023-03-29T01:35:37.138Z,86.35
2023-03-29T01:36:37.168Z,86.35
2023-03-29T01:37:37.069Z,86.45
2023-03-29T01:38:37.062Z,86.35
2023-03-29T01:39:37.050Z,86.35
2023-03-29T01:40:37.048Z,86.24
2023-03-29T01:41:37.032Z,86.55
2023-03-29T01:42:37.023Z,86.76
2023-03-29T01:43:37.000Z,86.66
2023-03-29T01:44:37.017Z,86.45
2023-03-29T01:45:37.011Z,86.76
2023-03-29T01:46:37.000Z,86.87
2023-03-29T01:47:37.023Z,86.45
2023-03-29T01:48:36.938Z,86.24
2023-03-29T01:49:36.937Z,86.35
2023-03-29T01:50:36.903Z,86.97
2023-03-29T01:51:36.905Z,86.97
2023-03-29T01:52:36.889Z,86.66
2023-03-29T01:53:36.870Z,86.97
2023-03-29T01:54:36.879Z,87.18
2023-03-29T01:55:36.837Z,87.18
2023-03-29T01:56:37.045Z,87.49
2023-03-29T01:57:36.860Z,87.60
2023-03-29T01:58:36.842Z,87.70
2023-03-29T01:59:36.809Z,87.70
2023-03-29T02:00:36.794Z,87.70
2023-03-29T02:01:36.808Z,87.63
2023-03-29T02:02:36.893Z,87.63
2023-03-29T02:03:36.761Z,87.43
2023-03-29T02:04:36.766Z,87.63
2023-03-29T02:05:36.715Z,87.84
2023-03-29T02:06:36.720Z,88.26
2023-03-29T02:07:36.725Z,88.68
2023-03-29T02:08:36.690Z,88.68
2023-03-29T02:09:36.699Z,88.68
2023-03-29T02:10:36.687Z,88.89
2023-03-29T02:11:36.656Z,89.10
2023-03-29T02:12:36.643Z,88.99
2023-03-29T02:13:36.638Z,88.99
2023-03-29T02:14:36.616Z,88.99
2023-03-29T02:15:36.665Z,89.10
2023-03-29T02:16:36.574Z,89.10
2023-03-29T02:17:36.577Z,88.99
2023-03-29T02:18:36.554Z,88.99
2023-03-29T02:19:36.533Z,88.82
2023-03-29T02:20:36.535Z,88.99
2023-03-29T02:21:36.510Z,89.20
2023-03-29T02:22:36.513Z,89.20
2023-03-29T02:23:36.482Z,88.99
2023-03-29T02:24:36.509Z,89.20
2023-03-29T02:25:36.468Z,89.51
2023-03-29T02:26:36.451Z,89.41
2023-03-29T02:27:36.431Z,89.20
2023-03-29T02:28:36.446Z,89.10
2023-03-29T02:29:36.426Z,88.68
2023-03-29T02:30:36.398Z,88.89
2023-03-29T02:31:36.489Z,89.10
2023-03-29T02:32:36.428Z,89.10
2023-03-29T02:33:36.375Z,89.20
2023-03-29T02:34:36.345Z,89.10
2023-03-29T02:35:36.509Z,88.89
2023-03-29T02:36:36.338Z,88.57
2023-03-29T02:37:36.320Z,88.16
2023-03-29T02:38:36.302Z,88.37
2023-03-29T02:39:36.295Z,88.47
2023-03-29T02:40:36.276Z,88.78
2023-03-29T02:41:36.273Z,88.99
2023-03-29T02:42:36.265Z,88.75
2023-03-29T02:43:36.239Z,88.57
2023-03-29T02:44:36.212Z,88.75
2023-03-29T02:45:36.217Z,88.75
2023-03-29T02:46:36.223Z,88.75
2023-03-29T02:47:36.227Z,88.75
2023-03-29T02:48:36.185Z,88.64
2023-03-29T02:49:36.145Z,88.37
2023-03-29T02:50:36.165Z,88.37
2023-03-29T02:51:36.126Z,88.78
2023-03-29T02:52:36.136Z,88.89
2023-03-29T02:53:36.102Z,88.47
2023-03-29T02:54:36.111Z,88.26
2023-03-29T02:55:36.076Z,88.16
2023-03-29T02:56:36.079Z,88.16
2023-03-29T02:57:36.085Z,88.26
2023-03-29T02:58:36.066Z,88.37
2023-03-29T02:59:36.048Z,88.47
2023-03-29T03:00:36.031Z,88.68
2023-03-29T03:01:36.049Z,88.68
2023-03-29T03:02:36.053Z,88.47
2023-03-29T03:03:36.121Z,88.37
2023-03-29T03:04:36.005Z,88.47
2023-03-29T03:05:36.081Z,88.26
2023-03-29T03:06:35.953Z,88.37
2023-03-29T03:07:35.931Z,88.30
2023-03-29T03:08:35.918Z,88.41
2023-03-29T03:09:35.942Z,88.51
2023-03-29T03:10:35.911Z,88.51
2023-03-29T03:11:35.875Z,88.51
2023-03-29T03:12:35.881Z,88.51
2023-03-29T03:13:35.907Z,88.30
2023-03-29T03:14:35.843Z,88.30
2023-03-29T03:15:35.957Z,88.30
2023-03-29T03:16:35.839Z,88.62
2023-03-29T03:17:35.842Z,88.72
2023-03-29T03:18:35.784Z,88.62
2023-03-29T03:19:35.776Z,88.62
2023-03-29T03:20:35.784Z,88.72
2023-03-29T03:21:35.765Z,88.82
2023-03-29T03:22:35.742Z,89.03
2023-03-29T03:23:35.755Z,89.03
2023-03-29T03:24:35.702Z,89.24
2023-03-29T03:25:35.693Z,89.03
2023-03-29T03:26:35.691Z,89.03
2023-03-29T03:27:35.673Z,89.03
2023-03-29T03:28:35.651Z,89.14
2023-03-29T03:29:35.647Z,89.28
2023-03-29T03:30:35.651Z,89.59
2023-03-29T03:31:35.689Z,89.70
2023-03-29T03:32:35.644Z,89.81
2023-03-29T03:33:35.579Z,89.91
2023-03-29T03:34:35.594Z,89.91
2023-03-29T03:35:35.617Z,90.01
2023-03-29T03:36:35.555Z,90.12
2023-03-29T03:37:35.561Z,90.12
2023-03-29T03:38:35.518Z,90.22
2023-03-29T03:39:35.516Z,90.22
2023-03-29T03:40:35.497Z,90.22
2023-03-29T03:41:35.478Z,90.22
2023-03-29T03:42:35.483Z,90.43
2023-03-29T03:43:35.472Z,90.53
2023-03-29T03:44:35.460Z,90.64
2023-03-29T03:45:35.479Z,90.85
2023-03-29T03:46:35.427Z,90.85
2023-03-29T03:47:35.456Z,90.85
2023-03-29T03:48:35.388Z,90.85
2023-03-29T03:49:43.075Z,90.75
2023-03-29T03:50:35.371Z,90.78
2023-03-29T03:51:35.368Z,90.78
2023-03-29T03:52:35.374Z,90.89
2023-03-29T03:53:35.350Z,91.20
2023-03-29T03:54:35.331Z,91.31
2023-03-29T03:55:35.356Z,91.20
2023-03-29T03:56:35.302Z,91.20
2023-03-29T03:57:35.303Z,91.31
2023-03-29T03:58:35.318Z,91.41
2023-03-29T03:59:35.285Z,91.62
2023-03-29T04:00:35.285Z,91.52
2023-03-29T04:01:35.260Z,91.41
2023-03-29T04:02:35.329Z,91.41
2023-03-29T04:03:35.422Z,91.62
2023-03-29T04:04:35.231Z,91.62
2023-03-29T04:05:35.208Z,91.62
2023-03-29T04:06:35.195Z,91.62
2023-03-29T04:07:35.248Z,91.41
2023-03-29T04:08:35.177Z,91.37
2023-03-29T04:09:35.188Z,91.27
2023-03-29T04:10:35.147Z,91.27
2023-03-29T04:11:35.167Z,91.27
2023-03-29T04:12:35.144Z,91.27
2023-03-29T04:13:35.093Z,91.06
2023-03-29T04:14:35.099Z,90.95
2023-03-29T04:15:35.125Z,90.85
2023-03-29T04:16:35.070Z,90.75
2023-03-29T04:17:35.275Z,90.64
2023-03-29T04:18:35.166Z,90.53
2023-03-29T04:19:35.029Z,90.64
2023-03-29T04:20:35.043Z,90.64
2023-03-29T04:21:35.019Z,90.53
2023-03-29T04:22:34.973Z,90.53
2023-03-29T04:23:34.960Z,90.43
2023-03-29T04:24:34.960Z,90.39
2023-03-29T04:25:35.025Z,90.28
2023-03-29T04:26:34.976Z,90.18
2023-03-29T04:27:34.953Z,90.08
2023-03-29T04:28:34.944Z,90.08
2023-03-29T04:29:34.952Z,90.08
2023-03-29T04:30:34.888Z,90.08
2023-03-29T04:31:34.934Z,89.97
2023-03-29T04:32:34.913Z,89.87
2023-03-29T04:33:34.859Z,89.66
2023-03-29T04:34:34.882Z,89.56
2023-03-29T04:35:34.875Z,89.66
2023-03-29T04:36:34.819Z,89.56
2023-03-29T04:37:34.804Z,89.66
2023-03-29T04:38:34.818Z,89.87
2023-03-29T04:39:34.768Z,89.76
2023-03-29T04:40:34.759Z,89.66
2023-03-29T04:41:34.756Z,89.56
2023-03-29T04:42:34.725Z,89.34
2023-03-29T04:43:34.741Z,89.24
2023-03-29T04:44:34.753Z,89.24
2023-03-29T04:45:34.714Z,89.34
2023-03-29T04:46:34.748Z,89.31
2023-03-29T04:47:34.707Z,89.14
2023-03-29T04:48:34.687Z,89.03
2023-03-29T04:49:34.653Z,89.14
2023-03-29T04:50:34.668Z,89.56
2023-03-29T04:51:34.604Z,89.66
2023-03-29T04:52:34.585Z,89.56
2023-03-29T04:53:34.638Z,89.56
2023-03-29T04:54:34.576Z,89.56
2023-03-29T04:55:34.576Z,89.62
2023-03-29T04:56:34.580Z,89.62
2023-03-29T04:57:34.553Z,89.51
2023-03-29T04:58:34.555Z,89.41
2023-03-29T04:59:34.544Z,89.41
2023-03-29T05:00:34.498Z,89.20
2023-03-29T05:01:34.511Z,89.20
2023-03-29T05:02:34.509Z,89.10
2023-03-29T05:03:34.489Z,88.99
2023-03-29T05:04:34.540Z,88.99
2023-03-29T05:05:34.470Z,89.10
2023-03-29T05:06:34.440Z,88.99
2023-03-29T05:07:34.430Z,88.99
2023-03-29T05:08:34.422Z,88.68
2023-03-29T05:09:35.521Z,88.68
2023-03-29T05:10:34.418Z,88.78
2023-03-29T05:11:34.371Z,88.78
2023-03-29T05:12:34.360Z,88.89
2023-03-29T05:13:34.345Z,88.78
2023-03-29T05:14:34.333Z,88.68
2023-03-29T05:15:34.344Z,88.68
2023-03-29T05:16:34.380Z,88.68
2023-03-29T05:17:34.303Z,88.53
2023-03-29T05:18:34.272Z,88.53
2023-03-29T05:19:34.305Z,88.53
2023-03-29T05:20:34.250Z,88.32
2023-03-29T05:21:34.226Z,88.22
2023-03-29T05:22:34.203Z,88.32
2023-03-29T05:23:34.281Z,88.22
2023-03-29T05:24:34.213Z,88.12
2023-03-29T05:25:34.164Z,88.12
2023-03-29T05:26:34.176Z,88.22
2023-03-29T05:27:34.151Z,88.22
2023-03-29T05:28:34.147Z,88.18
2023-03-29T05:29:34.124Z,88.08
2023-03-29T05:30:34.108Z,88.08
2023-03-29T05:31:34.139Z,88.08
2023-03-29T05:32:34.119Z,87.66
2023-03-29T05:33:34.100Z,87.45
2023-03-29T05:34:34.046Z,87.24
2023-03-29T05:35:34.122Z,87.24
2023-03-29T05:36:34.039Z,87.24
2023-03-29T05:37:34.011Z,87.24
2023-03-29T05:38:34.033Z,87.20
2023-03-29T05:39:35.794Z,87.30
2023-03-29T05:40:33.999Z,87.20
2023-03-29T05:41:33.975Z,87.10
2023-03-29T05:42:33.972Z,87.10
2023-03-29T05:43:33.931Z,87.10
2023-03-29T05:44:33.964Z,86.79
2023-03-29T05:45:34.143Z,86.79
2023-03-29T05:46:33.904Z,86.89
2023-03-29T05:47:33.956Z,86.89
2023-03-29T05:48:34.030Z,86.89
2023-03-29T05:49:33.885Z,86.89
2023-03-29T05:50:33.887Z,86.68
2023-03-29T05:51:33.872Z,86.68
2023-03-29T05:52:33.837Z,86.58
2023-03-29T05:53:33.814Z,86.58
2023-03-29T05:54:33.859Z,86.58
2023-03-29T05:55:33.787Z,86.58
2023-03-29T05:56:33.783Z,86.89
2023-03-29T05:57:33.790Z,86.79
2023-03-29T05:58:33.757Z,86.79
2023-03-29T05:59:33.769Z,86.68
2023-03-29T06:00:33.738Z,86.58
2023-03-29T06:01:33.744Z,86.33
2023-03-29T06:02:33.806Z,86.33
2023-03-29T06:03:33.908Z,86.43
2023-03-29T06:04:33.883Z,86.22
2023-03-29T06:05:33.694Z,86.43
2023-03-29T06:06:33.655Z,86.43
2023-03-29T06:07:33.672Z,86.43
2023-03-29T06:08:33.644Z,86.33
2023-03-29T06:09:33.615Z,86.12
2023-03-29T06:10:33.692Z,86.08
2023-03-29T06:11:33.594Z,85.77
2023-03-29T06:12:33.577Z,85.67
2023-03-29T06:13:33.578Z,85.56
2023-03-29T06:14:33.563Z,85.56
2023-03-29T06:15:33.567Z,85.56
2023-03-29T06:16:33.596Z,85.35
2023-03-29T06:17:33.712Z,85.00
2023-03-29T06:18:33.498Z,85.00
2023-03-29T06:19:33.495Z,85.00
2023-03-29T06:20:33.497Z,84.90
2023-03-29T06:21:33.466Z,84.69
2023-03-29T06:22:33.434Z,84.44
2023-03-29T06:23:33.446Z,84.13
2023-03-29T06:24:33.428Z,84.03
2023-03-29T06:25:33.434Z,84.23
2023-03-29T06:26:33.410Z,84.03
2023-03-29T06:27:33.402Z,83.61
2023-03-29T06:28:33.375Z,83.61
2023-03-29T06:29:33.372Z,83.61
2023-03-29T06:30:33.399Z,83.58
2023-03-29T06:31:33.377Z,83.47
2023-03-29T06:32:33.349Z,83.16
2023-03-29T06:33:33.343Z,83.05
2023-03-29T06:34:33.298Z,82.64
2023-03-29T06:35:33.301Z,82.74
2023-03-29T06:36:33.305Z,82.95
2023-03-29T06:37:33.264Z,83.12
2023-03-29T06:38:33.910Z,83.12
2023-03-29T06:39:33.243Z,82.70
2023-03-29T06:40:33.241Z,82.18
2023-03-29T06:41:33.196Z,82.50
2023-03-29T06:42:33.202Z,82.67
2023-03-29T06:43:33.529Z,82.35
2023-03-29T06:44:33.184Z,82.04
2023-03-29T06:45:33.163Z,81.52
2023-03-29T06:46:33.186Z,81.21
2023-03-29T06:47:33.163Z,81.21
2023-03-29T06:48:33.144Z,81.21
2023-03-29T06:49:33.089Z,81.18
2023-03-29T06:50:33.110Z,80.87
2023-03-29T06:51:33.104Z,80.97
2023-03-29T06:52:33.065Z,81.07
2023-03-29T06:53:33.056Z,81.18
2023-03-29T06:54:33.064Z,80.93
2023-03-29T06:55:33.075Z,80.83
2023-03-29T06:56:32.998Z,80.73
2023-03-29T06:57:33.016Z,80.21
2023-03-29T06:58:33.028Z,79.90
2023-03-29T06:59:32.966Z,80.10
2023-03-29T07:00:32.952Z,80.27
2023-03-29T07:01:33.007Z,80.47
2023-03-29T07:02:32.965Z,79.44
2023-03-29T07:03:32.926Z,79.03
2023-03-29T07:04:32.959Z,78.82
2023-03-29T07:05:32.896Z,78.92
2023-03-29T07:06:32.872Z,78.92
2023-03-29T07:07:32.868Z,78.72
2023-03-29T07:08:32.941Z,78.51
2023-03-29T07:09:32.888Z,78.20
2023-03-29T07:10:32.976Z,78.61
2023-03-29T07:11:32.806Z,77.99
2023-03-29T07:12:32.827Z,78.09
2023-03-29T07:13:32.805Z,78.47
2023-03-29T07:14:32.764Z,78.58
2023-03-29T07:15:32.792Z,77.95
2023-03-29T07:16:32.926Z,77.85
2023-03-29T07:17:32.779Z,77.75
2023-03-29T07:18:32.762Z,77.54
2023-03-29T07:19:32.719Z,77.29
2023-03-29T07:20:32.709Z,77.61
2023-03-29T07:21:32.722Z,77.19
2023-03-29T07:22:32.670Z,77.19
2023-03-29T07:23:32.731Z,77.09
2023-03-29T07:24:32.639Z,76.95
2023-03-29T07:25:32.644Z,77.15
2023-03-29T07:26:32.620Z,77.05
2023-03-29T07:27:32.639Z,76.74
2023-03-29T07:28:32.613Z,76.09
2023-03-29T07:29:32.607Z,75.40
2023-03-29T07:30:32.741Z,75.19
2023-03-29T07:31:32.565Z,74.98
2023-03-29T07:32:32.723Z,75.19
2023-03-29T07:33:32.640Z,75.26
2023-03-29T07:34:32.530Z,75.46
2023-03-29T07:35:32.516Z,75.15
2023-03-29T07:36:32.496Z,74.22
2023-03-29T07:37:32.483Z,74.22
2023-03-29T07:38:32.518Z,74.02
2023-03-29T07:39:32.457Z,74.19
2023-03-29T07:40:32.433Z,74.60
2023-03-29T07:41:32.430Z,75.12
2023-03-29T07:42:32.574Z,73.88
2023-03-29T07:43:32.414Z,73.33
2023-03-29T07:44:32.389Z,72.74
2023-03-29T07:45:32.407Z,73.22
2023-03-29T07:46:32.372Z,73.74
2023-03-29T07:47:32.398Z,74.02
2023-03-29T07:48:32.343Z,74.02
2023-03-29T07:49:32.342Z,72.98
2023-03-29T07:50:32.326Z,72.98
2023-03-29T07:51:32.353Z,73.39
2023-03-29T07:52:32.286Z,72.98
2023-03-29T07:53:32.296Z,72.47
2023-03-29T07:54:32.257Z,72.85
2023-03-29T07:55:32.257Z,73.47
2023-03-29T07:56:32.257Z,72.02
2023-03-29T07:57:32.318Z,71.74
2023-03-29T07:58:32.223Z,71.95
2023-03-29T07:59:32.202Z,72.26
2023-03-29T08:00:32.485Z,71.64
2023-03-29T08:01:32.233Z,71.74
2023-03-29T08:02:32.235Z,71.95
2023-03-29T08:03:32.171Z,72.26
2023-03-29T08:04:32.244Z,72.57
2023-03-29T08:05:40.846Z,71.95
2023-03-29T08:06:33.105Z,71.64
2023-03-29T08:07:32.094Z,71.33
2023-03-29T08:08:32.068Z,71.53
2023-03-29T08:09:32.058Z,71.33
2023-03-29T08:10:32.072Z,71.12
2023-03-29T08:11:32.021Z,70.81
2023-03-29T08:12:32.028Z,71.09
2023-03-29T08:13:32.028Z,70.06
2023-03-29T08:14:32.015Z,70.06
2023-03-29T08:15:32.040Z,70.03
2023-03-29T08:16:32.001Z,69.92
2023-03-29T08:17:31.982Z,69.30
2023-03-29T08:18:34.269Z,69.06
2023-03-29T08:19:31.937Z,68.85
2023-03-29T08:20:31.922Z,68.62
2023-03-29T08:21:31.928Z,67.48
2023-03-29T08:22:31.903Z,67.27
2023-03-29T08:23:31.898Z,67.61
2023-03-29T08:24:31.893Z,68.44
2023-03-29T08:25:31.855Z,68.62
2023-03-29T08:26:31.915Z,67.48
2023-03-29T08:27:31.842Z,67.27
2023-03-29T08:28:31.814Z,67.76
2023-03-29T08:29:31.833Z,67.42
2023-03-29T08:30:31.792Z,67.11
2023-03-29T08:31:31.867Z,66.49
2023-03-29T08:32:31.816Z,65.88
2023-03-29T08:33:31.747Z,66.73
2023-03-29T08:34:31.847Z,67.32
2023-03-29T08:35:31.723Z,66.70
2023-03-29T08:36:31.765Z,66.97
2023-03-29T08:37:31.739Z,66.36
2023-03-29T08:38:31.699Z,66.46
2023-03-29T08:39:31.685Z,65.92
2023-03-29T08:40:31.686Z,64.99
2023-03-29T08:41:31.635Z,65.64
2023-03-29T08:42:31.697Z,65.40
2023-03-29T08:43:31.627Z,65.40
2023-03-29T08:44:31.612Z,64.99
2023-03-29T08:45:31.630Z,64.81
2023-03-29T08:46:35.530Z,65.22
2023-03-29T08:47:31.631Z,65.84
2023-03-29T08:48:31.583Z,65.88
2023-03-29T08:49:31.605Z,66.21
2023-03-29T08:50:31.545Z,67.32
2023-03-29T08:51:31.508Z,67.21
2023-03-29T08:52:31.523Z,66.87
2023-03-29T08:53:31.491Z,66.25
2023-03-29T08:54:31.524Z,66.33
2023-03-29T08:55:31.465Z,66.02
2023-03-29T08:56:33.638Z,66.30
2023-03-29T08:57:31.438Z,66.09
2023-03-29T08:58:31.498Z,65.61
2023-03-29T08:59:31.474Z,66.84
2023-03-29T09:00:31.427Z,67.15
2023-03-29T09:01:31.433Z,66.33
2023-03-29T09:02:31.439Z,66.94
2023-03-29T09:03:31.464Z,67.02
2023-03-29T09:04:31.412Z,67.02
2023-03-29T09:05:31.340Z,66.91
2023-03-29T09:06:31.352Z,67.02
2023-03-29T09:07:31.303Z,67.30
2023-03-29T09:08:31.377Z,66.88
2023-03-29T09:09:31.305Z,66.16
2023-03-29T09:10:31.304Z,66.27
2023-03-29T09:11:31.249Z,66.81
2023-03-29T09:12:31.259Z,67.02
2023-03-29T09:13:31.338Z,67.12
2023-03-29T09:14:31.237Z,67.30
2023-03-29T09:15:31.208Z,67.09
2023-03-29T09:16:31.356Z,67.50
2023-03-29T09:17:31.223Z,66.88
2023-03-29T09:18:31.190Z,67.16
2023-03-29T09:19:31.147Z,66.64
2023-03-29T09:20:31.191Z,66.75
2023-03-29T09:21:31.191Z,66.64
2023-03-29T09:22:31.132Z,66.64
2023-03-29T09:23:31.109Z,66.20
2023-03-29T09:24:31.102Z,66.41
2023-03-29T09:25:34.488Z,66.07
2023-03-29T09:26:32.080Z,65.94
2023-03-29T09:27:31.051Z,65.42
2023-03-29T09:28:31.099Z,65.19
2023-03-29T09:29:31.032Z,64.98
2023-03-29T09:30:31.009Z,65.06
2023-03-29T09:31:31.105Z,64.64
2023-03-29T09:32:31.037Z,64.57
2023-03-29T09:33:30.973Z,65.16
2023-03-29T09:34:31.039Z,64.95
2023-03-29T09:35:31.021Z,65.23
2023-03-29T09:36:30.926Z,64.72
2023-03-29T09:37:30.922Z,64.78
2023-03-29T09:38:31.030Z,65.09
2023-03-29T09:39:30.884Z,65.53
2023-03-29T09:40:30.910Z,66.61
2023-03-29T09:41:30.865Z,67.10
2023-03-29T09:42:30.983Z,67.07
2023-03-29T09:43:30.845Z,66.76
2023-03-29T09:44:31.676Z,66.11
2023-03-29T09:45:30.842Z,66.25
2023-03-29T09:46:30.880Z,66.45
2023-03-29T09:47:30.884Z,66.52
2023-03-29T09:48:30.796Z,66.28
2023-03-29T09:50:31.359Z,65.88
2023-03-29T09:51:27.330Z,66.22
2023-03-29T09:52:26.309Z,66.42
2023-03-29T09:53:26.301Z,66.39
2023-03-29T09:54:26.331Z,65.98
2023-03-29T09:55:26.283Z,66.42
2023-03-29T09:56:26.249Z,66.73
2023-03-29T09:57:26.359Z,66.93
2023-03-29T09:58:26.239Z,66.39
2023-03-29T09:59:26.222Z,66.56
2023-03-29T10:00:26.211Z,65.84
2023-03-29T10:01:26.298Z,65.64
2023-03-29T10:02:26.211Z,66.33
2023-03-29T10:03:26.156Z,65.51
2023-03-29T10:04:26.218Z,65.99
2023-03-29T10:05:26.190Z,64.86
2023-03-29T10:06:26.152Z,65.00
2023-03-29T10:07:26.121Z,64.89
2023-03-29T10:08:26.115Z,64.92
2023-03-29T10:09:26.075Z,65.64
2023-03-29T10:10:26.098Z,65.71
2023-03-29T10:11:26.061Z,65.37
2023-03-29T10:12:26.069Z,64.53
2023-03-29T10:13:26.034Z,64.73
2023-03-29T10:14:26.096Z,63.91
2023-03-29T10:15:29.829Z,64.18
2023-03-29T10:16:27.502Z,63.57
2023-03-29T10:17:26.113Z,63.50
2023-03-29T10:18:25.979Z,64.22
2023-03-29T10:19:25.970Z,63.26
2023-03-29T10:20:25.965Z,63.20
2023-03-29T10:21:25.936Z,63.53
2023-03-29T10:22:25.951Z,63.91
2023-03-29T10:23:25.902Z,63.43
2023-03-29T10:24:25.930Z,64.28
2023-03-29T10:25:25.896Z,64.17
2023-03-29T10:26:25.889Z,63.84
2023-03-29T10:27:25.873Z,64.45
2023-03-29T10:28:25.852Z,63.73
2023-03-29T10:29:25.846Z,63.70
2023-03-29T10:30:25.855Z,63.70
2023-03-29T10:31:25.905Z,63.88
2023-03-29T10:32:25.832Z,63.44
2023-03-29T10:33:25.779Z,62.29
2023-03-29T10:34:25.812Z,61.65
2023-03-29T10:35:25.769Z,61.75
2023-03-29T10:36:25.754Z,60.83
2023-03-29T10:37:25.769Z,60.49
2023-03-29T10:38:25.730Z,61.10
2023-03-29T10:39:25.704Z,60.80
2023-03-29T10:40:25.700Z,60.31
2023-03-29T10:41:25.712Z,61.13
2023-03-29T10:42:25.677Z,60.72
2023-03-29T10:43:25.657Z,61.16
2023-03-29T10:44:25.660Z,61.09
2023-03-29T10:45:25.641Z,62.04
2023-03-29T10:46:25.878Z,62.55
2023-03-29T10:47:25.678Z,63.06
2023-03-29T10:48:25.603Z,63.26
2023-03-29T10:49:25.624Z,62.85
2023-03-29T10:50:25.582Z,63.34
2023-03-29T10:51:25.565Z,62.73
2023-03-29T10:52:25.558Z,62.93
2023-03-29T10:53:25.533Z,62.39
2023-03-29T10:54:25.537Z,62.80
2023-03-29T10:55:25.513Z,62.57
2023-03-29T10:56:25.496Z,61.72
2023-03-29T10:57:25.501Z,61.92
2023-03-29T10:58:25.480Z,61.21
2023-03-29T10:59:25.489Z,61.10
2023-03-29T11:00:25.450Z,61.00
2023-03-29T11:01:25.495Z,61.34
2023-03-29T11:02:25.478Z,62.26
2023-03-29T11:03:25.542Z,61.85
2023-03-29T11:04:25.397Z,61.65
2023-03-29T11:05:25.386Z,61.54
2023-03-29T11:06:25.394Z,61.03
2023-03-29T11:07:25.342Z,61.65
2023-03-29T11:08:25.356Z,61.82
2023-03-29T11:09:25.312Z,60.90
2023-03-29T11:10:25.320Z,61.44
2023-03-29T11:11:25.291Z,61.75
2023-03-29T11:12:25.269Z,61.44
2023-03-29T11:13:25.284Z,61.65
2023-03-29T11:14:25.254Z,61.95
2023-03-29T11:15:25.246Z,62.16
2023-03-29T11:16:25.253Z,62.70
2023-03-29T11:17:25.235Z,63.44
2023-03-29T11:18:25.201Z,63.75
2023-03-29T11:19:25.189Z,63.68
2023-03-29T11:20:25.174Z,64.16
2023-03-29T11:21:25.175Z,63.41
2023-03-29T11:22:25.201Z,62.59
2023-03-29T11:23:25.198Z,62.39
2023-03-29T11:24:25.122Z,62.93
2023-03-29T11:25:26.678Z,63.24
2023-03-29T11:26:25.100Z,63.24
2023-03-29T11:27:25.076Z,62.93
2023-03-29T11:28:25.074Z,63.57
2023-03-29T11:29:25.049Z,64.50
2023-03-29T11:30:25.097Z,64.60
2023-03-29T11:31:25.088Z,64.39
2023-03-29T11:32:25.056Z,64.16
2023-03-29T11:33:24.998Z,62.93
2023-03-29T11:34:24.992Z,62.90
2023-03-29T11:35:24.985Z,62.90
2023-03-29T11:36:24.946Z,62.70
2023-03-29T11:37:24.940Z,62.66
2023-03-29T11:38:24.925Z,62.18
2023-03-29T11:39:25.075Z,63.24
2023-03-29T11:40:24.892Z,62.93
2023-03-29T11:41:24.874Z,63.17
2023-03-29T11:42:24.865Z,63.57
2023-03-29T11:43:24.896Z,63.95
2023-03-29T11:44:24.883Z,63.85
2023-03-29T11:45:24.859Z,63.82
2023-03-29T11:46:24.846Z,63.51
2023-03-29T11:47:24.795Z,63.18
2023-03-29T11:48:24.795Z,62.90
2023-03-29T11:49:24.773Z,62.80
2023-03-29T11:50:24.789Z,63.51
2023-03-29T11:51:24.762Z,63.72
2023-03-29T11:52:24.821Z,63.41
2023-03-29T11:53:24.763Z,63.10
2023-03-29T11:54:24.721Z,63.48
2023-03-29T11:55:24.701Z,62.77
2023-03-29T11:56:24.714Z,62.98
2023-03-29T11:57:24.757Z,63.07
2023-03-29T11:58:25.313Z,62.84
2023-03-29T11:59:24.648Z,63.25
2023-03-29T12:00:24.652Z,62.57
2023-03-29T12:01:24.626Z,63.31
2023-03-29T12:02:24.782Z,62.90
2023-03-29T12:03:24.766Z,63.72
2023-03-29T12:04:24.744Z,63.28
2023-03-29T12:05:24.582Z,62.77
2023-03-29T12:06:24.566Z,62.36
2023-03-29T12:07:24.544Z,63.15
2023-03-29T12:08:24.563Z,61.92
2023-03-29T12:09:24.518Z,62.10
2023-03-29T12:10:24.508Z,61.69
2023-03-29T12:11:24.488Z,62.10
2023-03-29T12:12:24.533Z,61.76
2023-03-29T12:13:24.457Z,61.46
2023-03-29T12:14:27.363Z,61.08
2023-03-29T12:15:24.441Z,60.87
2023-03-29T12:16:24.456Z,61.51
2023-03-29T12:17:24.442Z,61.51
2023-03-29T12:18:24.420Z,61.95
2023-03-29T12:19:24.393Z,61.85
2023-03-29T12:20:24.398Z,62.23
2023-03-29T12:21:24.376Z,61.95
2023-03-29T12:22:24.376Z,61.75
2023-03-29T12:23:24.351Z,62.05
2023-03-29T12:24:24.338Z,61.85
2023-03-29T12:25:24.324Z,61.92
2023-03-29T12:26:24.344Z,61.92
2023-03-29T12:27:24.287Z,61.51
2023-03-29T12:28:24.273Z,61.90
2023-03-29T12:29:24.293Z,60.97
2023-03-29T12:30:24.248Z,60.94
2023-03-29T12:31:24.270Z,60.13
2023-03-29T12:32:24.244Z,60.23
2023-03-29T12:33:24.216Z,59.92
2023-03-29T12:34:24.264Z,60.57
2023-03-29T12:35:24.170Z,60.64
2023-03-29T12:36:24.182Z,60.85
2023-03-29T12:37:24.186Z,60.87
2023-03-29T12:38:24.163Z,61.18
2023-03-29T12:39:24.254Z,61.28
2023-03-29T12:40:24.142Z,60.85
2023-03-29T12:41:24.103Z,61.08
2023-03-29T12:42:24.101Z,61.28
2023-03-29T12:43:24.081Z,61.61
2023-03-29T12:44:24.098Z,62.66
2023-03-29T12:45:24.071Z,62.95
2023-03-29T12:46:24.090Z,62.33
2023-03-29T12:47:24.021Z,61.51
2023-03-29T12:48:24.028Z,62.43
2023-03-29T12:49:24.034Z,62.13
2023-03-29T12:50:24.003Z,62.13
2023-03-29T12:51:23.990Z,62.26
2023-03-29T12:52:23.960Z,62.36
2023-03-29T12:53:23.966Z,62.36